Time;durP1;ratioP1;P1;durP2;ratioP2;P2;SDS_P1;SDS_P2;PMS_P1;PMS_P2;Temp;Humidity;BMP_temperature;BMP_pressure;BME280_temperature;BME280_humidity;BME280_pressure;Samples;Min_cycle;Max_cycle;Signal;HPM_P1;HPM_P2
2023/08/03 00:02:14;;;;;;;;;0.00;0.00;;;;;-143.90;60.26;73157.00;4993797;27;101844;-79
2023/08/03 00:04:52;;;;;;;;;1.00;1.00;;;;;-143.90;60.17;73154.94;4995365;27;101719;-78
2023/08/03 00:07:35;;;;;;;;;1.00;1.00;;;;;-143.90;60.23;73159.09;4982362;28;107221;-80
2023/08/03 00:10:26;;;;;;;;;1.00;0.00;;;;;-143.90;60.27;73157.00;4998091;27;101754;-79
2023/08/03 00:13:09;;;;;;;;;0.00;0.00;;;;;-143.90;60.62;73154.94;4994164;27;101657;-79
2023/08/03 00:16:00;;;;;;;;;0.00;0.00;;;;;-143.90;60.80;73152.88;4993511;27;101768;-79
2023/08/03 00:18:39;;;;;;;;;0.00;0.00;;;;;-143.90;60.61;73154.94;4994574;28;102476;-79
2023/08/03 00:21:06;;;;;;;;;1.00;1.00;;;;;-143.90;60.50;73154.94;4997546;27;101817;-79
2023/08/03 00:23:33;;;;;;;;;0.00;0.00;;;;;-143.90;62.16;73159.09;4992409;27;102887;-79
2023/08/03 00:26:00;;;;;;;;;1.00;0.00;;;;;-143.90;60.78;73159.09;4993841;28;101635;-80
2023/08/03 00:28:30;;;;;;;;;1.00;1.00;;;;;-143.90;60.79;73175.63;4986208;28;102815;-78
2023/08/03 00:30:57;;;;;;;;;0.33;0.00;;;;;-143.90;61.45;73181.81;4996394;28;101810;-78
2023/08/03 00:33:34;;;;;;;;;0.00;0.00;;;;;-143.90;61.57;73177.69;4991996;28;101942;-78
2023/08/03 00:36:01;;;;;;;;;0.00;0.00;;;;;-143.90;63.12;73173.53;4984695;27;102075;-79
2023/08/03 00:38:28;;;;;;;;;0.00;0.00;;;;;-143.90;64.80;73175.63;4994421;27;103458;-80
2023/08/03 00:40:55;;;;;;;;;0.00;0.00;;;;;-143.90;65.09;73185.94;4985633;28;101642;-79
2023/08/03 00:43:22;;;;;;;;;0.00;0.00;;;;;-143.90;64.38;73200.41;4987656;27;104636;-78
2023/08/03 00:45:49;;;;;;;;;0.00;0.00;;;;;-143.90;66.52;73198.34;4993285;27;102204;-79
2023/08/03 00:48:19;;;;;;;;;0.00;0.00;;;;;-143.90;65.96;73204.53;4994607;27;103190;-79
2023/08/03 00:50:46;;;;;;;;;0.00;0.00;;;;;-143.90;64.69;73212.81;4983601;27;101826;-79
2023/08/03 00:53:13;;;;;;;;;0.00;0.00;;;;;-143.90;66.29;73219.00;4988522;27;101937;-79
2023/08/03 00:55:40;;;;;;;;;0.00;0.00;;;;;-143.90;65.61;73227.28;4992775;27;101861;-79
2023/08/03 00:58:07;;;;;;;;;0.00;0.00;;;;;-143.90;67.08;73221.06;4974027;27;103107;-79
2023/08/03 01:00:34;;;;;;;;;0.00;0.00;;;;;-143.90;66.14;73223.13;4981037;28;101709;-80
2023/08/03 01:03:02;;;;;;;;;0.00;0.00;;;;;-143.90;68.56;73225.19;4992470;27;101862;-79
2023/08/03 01:05:39;;;;;;;;;0.00;0.00;;;;;-143.90;68.02;73254.13;4983769;27;102036;-80
2023/08/03 01:08:25;;;;;;;;;0.00;0.00;;;;;-143.90;68.52;73264.47;4964565;28;106859;-79
2023/08/03 01:11:10;;;;;;;;;0.00;0.00;;;;;-143.90;67.87;73258.25;4960195;28;101622;-80
2023/08/03 01:13:51;;;;;;;;;0.00;0.00;;;;;-143.90;67.68;73250.00;4963518;28;103535;-80
2023/08/03 01:16:40;;;;;;;;;0.00;0.00;;;;;-143.90;67.63;73247.94;4969724;28;101817;-79
2023/08/03 01:19:32;;;;;;;;;0.00;0.00;;;;;-143.90;69.58;73237.59;4962653;28;106525;-79
2023/08/03 01:22:08;;;;;;;;;1.00;0.00;;;;;-143.90;69.17;73237.59;4973091;28;101561;-80
2023/08/03 01:24:35;;;;;;;;;0.00;0.00;;;;;-143.90;70.80;73237.59;4968108;28;101867;-79
2023/08/03 01:27:04;;;;;;;;;0.00;0.00;;;;;-143.90;70.42;73241.75;4965306;28;101777;-79
2023/08/03 01:29:31;;;;;;;;;0.00;0.00;;;;;-143.90;69.23;73245.88;4969768;28;103529;-80
2023/08/03 01:32:00;;;;;;;;;0.00;0.00;;;;;-143.90;68.73;73245.88;4971599;28;101599;-79
2023/08/03 01:34:28;;;;;;;;;1.00;0.00;;;;;-143.90;69.10;73254.13;4950051;28;101699;-79
2023/08/03 01:36:55;;;;;;;;;1.00;1.00;;;;;-143.90;69.84;73264.47;4970562;28;102744;-79
2023/08/03 01:39:26;;;;;;;;;0.67;0.00;;;;;-143.90;70.17;73254.13;4963279;28;102508;-79
2023/08/03 01:41:53;;;;;;;;;0.00;0.00;;;;;-143.90;69.07;73254.13;4973207;28;101487;-80
2023/08/03 01:44:36;;;;;;;;;0.00;0.00;;;;;-143.90;69.46;73258.25;4942126;28;101626;-79
2023/08/03 01:47:03;;;;;;;;;0.00;0.00;;;;;-143.90;70.06;73258.25;4968450;28;102334;-80
2023/08/03 01:49:32;;;;;;;;;0.00;0.00;;;;;-143.90;71.45;73272.72;4969335;28;103388;-79
2023/08/03 01:52:06;;;;;;;;;0.33;0.33;;;;;-143.90;71.21;73295.47;4978400;28;101767;-80
2023/08/03 01:54:34;;;;;;;;;2.00;2.00;;;;;-143.90;71.54;73301.66;4977520;28;101881;-80
2023/08/03 01:57:01;;;;;;;;;1.67;1.67;;;;;-143.90;70.28;73301.66;4977467;28;101738;-79
2023/08/03 01:59:28;;;;;;;;;3.00;3.00;;;;;-143.90;70.30;73295.47;4969582;28;103368;-79
2023/08/03 02:01:55;;;;;;;;;3.00;3.00;;;;;-143.90;69.48;73291.31;4970900;28;101721;-79
2023/08/03 02:04:22;;;;;;;;;2.67;2.00;;;;;-143.90;71.36;73291.31;4974511;28;103760;-81
2023/08/03 02:06:51;;;;;;;;;3.00;2.00;;;;;-143.90;72.17;73299.59;4992337;28;101861;-80
2023/08/03 02:09:30;;;;;;;;;1.67;0.67;;;;;-143.90;71.76;73303.72;4990737;27;103455;-80
2023/08/03 02:11:57;;;;;;;;;1.00;1.00;;;;;-143.90;71.70;73303.72;4980875;28;101603;-80
2023/08/03 02:14:24;;;;;;;;;1.00;1.00;;;;;-143.90;72.15;73301.66;4993279;28;102184;-80
2023/08/03 02:16:52;;;;;;;;;1.00;1.00;;;;;-143.90;72.25;73307.84;4988511;28;102001;-80
2023/08/03 02:19:19;;;;;;;;;1.00;0.00;;;;;-143.90;73.09;73307.84;4988207;28;102639;-79
2023/08/03 02:21:46;;;;;;;;;1.00;1.00;;;;;-143.90;72.39;73320.25;4993560;28;102036;-80
2023/08/03 02:24:13;;;;;;;;;0.00;0.00;;;;;-143.90;71.86;73326.47;4969196;28;103124;-79
2023/08/03 02:26:40;;;;;;;;;0.00;0.00;;;;;-143.90;70.97;73320.25;4975436;28;101738;-80
2023/08/03 02:29:08;;;;;;;;;1.67;0.33;;;;;-143.90;70.47;73338.84;4992096;28;102680;-80
2023/08/03 02:31:35;;;;;;;;;1.00;1.00;;;;;-143.90;69.48;73334.72;4971268;28;101745;-81
2023/08/03 02:34:02;;;;;;;;;1.00;1.00;;;;;-143.90;69.12;73340.94;4991674;28;104534;-80
2023/08/03 02:36:29;;;;;;;;;2.00;2.00;;;;;-143.90;68.50;73338.84;4990817;28;101590;-80
2023/08/03 02:38:56;;;;;;;;;2.00;2.00;;;;;-143.90;68.12;73338.84;4971521;28;102728;-81
2023/08/03 02:41:38;;;;;;;;;1.00;1.00;;;;;-143.90;67.59;73324.41;4988382;28;101386;-80
2023/08/03 02:44:26;;;;;;;;;2.00;2.00;;;;;-143.90;67.28;73316.13;4993989;28;101618;-80
2023/08/03 02:47:13;;;;;;;;;1.67;1.67;;;;;-143.90;68.04;73312.00;4997973;28;101672;-81
2023/08/03 02:49:41;;;;;;;;;1.00;0.33;;;;;-143.90;68.69;73320.25;4991713;28;103435;-80
2023/08/03 02:52:08;;;;;;;;;1.67;1.67;;;;;-143.90;69.39;73324.41;4993559;28;101624;-79
2023/08/03 02:54:42;;;;;;;;;2.00;2.00;;;;;-143.90;69.88;73320.25;4997992;28;101810;-79
2023/08/03 02:57:12;;;;;;;;;1.00;1.00;;;;;-143.90;69.43;73309.94;4995564;28;101569;-80
2023/08/03 02:59:39;;;;;;;;;1.00;1.00;;;;;-143.90;70.15;73316.13;4984348;28;103527;-80
2023/08/03 03:02:21;;;;;;;;;3.00;2.00;;;;;-143.90;70.25;73312.00;4997064;28;102249;-79
2023/08/03 03:04:53;;;;;;;;;2.00;2.00;;;;;-143.90;71.10;73318.19;4992132;28;101535;-79
2023/08/03 03:07:20;;;;;;;;;1.00;1.00;;;;;-143.90;72.12;73312.00;4994332;27;102328;-78
2023/08/03 03:09:50;;;;;;;;;2.00;2.00;;;;;-143.90;73.36;73312.00;4999726;27;102997;-78
2023/08/03 03:12:36;;;;;;;;;2.00;2.00;;;;;-143.90;75.88;73340.94;4966328;28;101766;-77
2023/08/03 03:15:03;;;;;;;;;4.00;4.00;;;;;-143.90;77.01;73351.25;4991166;28;101606;-79
2023/08/03 03:17:30;;;;;;;;;2.00;2.00;;;;;-143.90;78.06;73353.31;5001307;27;102067;-79
2023/08/03 03:19:57;;;;;;;;;2.67;1.67;;;;;-143.90;79.32;73369.84;4973263;28;103520;-77
2023/08/03 03:22:24;;;;;;;;;1.00;1.00;;;;;-143.90;80.90;73380.19;4993842;27;101847;-78
2023/08/03 03:24:51;;;;;;;;;3.00;2.33;;;;;-143.90;82.13;73394.66;4991558;27;101863;-77
2023/08/03 03:27:18;;;;;;;;;2.00;2.00;;;;;-143.90;83.12;73396.72;4996858;27;101976;-78
2023/08/03 03:29:45;;;;;;;;;1.67;1.33;;;;;-143.90;84.40;73407.06;4996845;27;103412;-77
2023/08/03 03:32:12;;;;;;;;;2.00;2.00;;;;;-143.90;85.44;73417.38;4972486;28;101889;-77
2023/08/03 03:34:40;;;;;;;;;1.00;1.00;;;;;-143.90;86.26;73421.53;4985132;27;102176;-78
2023/08/03 03:37:07;;;;;;;;;2.00;2.00;;;;;-143.90;87.28;73419.44;4972087;27;101626;-76
2023/08/03 03:39:34;;;;;;;;;1.00;1.00;;;;;-143.90;87.31;73419.44;4991387;27;104226;-76
2023/08/03 03:42:01;;;;;;;;;2.33;2.00;;;;;-143.90;87.69;73413.25;4970868;28;102164;-77
2023/08/03 03:44:28;;;;;;;;;2.67;2.00;;;;;-143.90;88.27;73407.06;4986536;27;101922;-76
2023/08/03 03:46:55;;;;;;;;;1.67;1.67;;;;;-143.90;88.13;73407.06;4989358;27;101605;-77
2023/08/03 03:49:22;;;;;;;;;2.00;2.00;;;;;-143.90;88.38;73402.91;4984082;27;102832;-77
2023/08/03 03:51:49;;;;;;;;;2.67;2.67;;;;;-143.90;88.53;73390.53;4986974;27;101831;-78
2023/08/03 03:54:16;;;;;;;;;1.00;1.00;;;;;-143.90;87.68;73384.31;4996591;27;101720;-79
2023/08/03 03:56:43;;;;;;;;;2.00;2.00;;;;;-143.90;87.81;73380.19;4991138;27;101807;-78
2023/08/03 03:59:10;;;;;;;;;1.00;1.00;;;;;-143.90;87.99;73382.25;4970075;28;102212;-78
2023/08/03 04:01:37;;;;;;;;;1.00;1.00;;;;;-143.90;87.96;73386.38;4986051;27;101588;-79
2023/08/03 04:04:04;;;;;;;;;0.00;0.00;;;;;-143.90;88.35;73386.38;4994535;27;101513;-79
2023/08/03 04:06:31;;;;;;;;;1.00;0.33;;;;;-143.90;87.39;73384.31;4970877;28;102067;-79
2023/08/03 04:08:59;;;;;;;;;0.00;0.00;;;;;-143.90;87.28;73378.13;4985476;27;103518;-79
2023/08/03 04:11:26;;;;;;;;;0.33;0.33;;;;;-143.90;86.78;73371.91;4991399;27;102014;-80
2023/08/03 04:13:53;;;;;;;;;0.00;0.00;;;;;-143.90;87.28;73371.91;4994298;27;101774;-81
2023/08/03 04:16:22;;;;;;;;;0.00;0.00;;;;;-143.90;87.37;73369.84;4992685;27;101731;-80
2023/08/03 04:18:49;;;;;;;;;0.33;0.33;;;;;-143.90;87.04;73367.78;4975292;28;104978;-79
2023/08/03 04:21:16;;;;;;;;;1.00;1.00;;;;;-143.90;86.73;73357.47;4994388;27;101668;-80
2023/08/03 04:23:43;;;;;;;;;2.00;2.00;;;;;-143.90;87.00;73367.78;4986787;27;101548;-81
2023/08/03 04:26:10;;;;;;;;;1.00;1.00;;;;;-143.90;87.63;73363.66;4965819;28;101827;-82
2023/08/03 04:28:37;;;;;;;;;2.00;1.33;;;;;-143.90;88.34;73374.00;4984328;27;102351;-82
2023/08/03 04:31:04;;;;;;;;;1.00;1.00;;;;;-143.90;88.73;73367.78;4972491;27;103660;-82
2023/08/03 04:33:32;;;;;;;;;1.00;1.00;;;;;-143.90;88.55;73369.84;4970263;28;101808;-83
2023/08/03 04:36:00;;;;;;;;;0.67;0.67;;;;;-143.90;88.69;73361.59;4984003;27;103270;-83
2023/08/03 04:38:27;;;;;;;;;0.00;0.00;;;;;-143.90;88.04;73361.59;4982522;27;103340;-83
2023/08/03 04:40:54;;;;;;;;;0.33;0.33;;;;;-143.90;87.93;73347.13;4982467;28;101794;-83
2023/08/03 04:43:21;;;;;;;;;0.00;0.00;;;;;-143.90;87.63;73349.19;4978854;27;102261;-83
2023/08/03 04:45:48;;;;;;;;;1.00;0.00;;;;;-143.90;88.74;73382.25;4983187;27;101748;-84
2023/08/03 04:48:15;;;;;;;;;2.33;2.00;;;;;-143.90;90.69;73415.31;4975825;27;107446;-82
2023/08/03 04:50:43;;;;;;;;;2.00;2.00;;;;;-143.90;90.37;73415.31;4985561;27;101659;-83
2023/08/03 04:53:10;;;;;;;;;1.33;1.33;;;;;-143.90;91.17;73413.25;4970993;28;101550;-85
2023/08/03 04:55:37;;;;;;;;;0.00;0.00;;;;;-143.90;90.71;73411.19;4971370;27;101811;-83
2023/08/03 04:58:05;;;;;;;;;1.00;1.00;;;;;-143.90;89.87;73404.97;4981349;27;102805;-84
2023/08/03 05:00:32;;;;;;;;;0.33;0.33;;;;;-143.90;89.70;73396.72;4976602;27;101639;-84
2023/08/03 05:02:59;;;;;;;;;0.00;0.00;;;;;-143.90;90.20;73398.78;4981354;27;102235;-83
2023/08/03 05:05:26;;;;;;;;;0.00;0.00;;;;;-143.90;90.59;73402.91;4981131;27;102008;-85
2023/08/03 05:07:54;;;;;;;;;0.00;0.00;;;;;-143.90;90.17;73396.72;4980728;27;104044;-84
2023/08/03 05:10:21;;;;;;;;;0.00;0.00;;;;;-143.90;90.08;73398.78;4981778;28;101922;-83
2023/08/03 05:12:48;;;;;;;;;1.00;1.00;;;;;-143.90;90.97;73411.19;4985894;27;101617;-79
2023/08/03 05:15:15;;;;;;;;;1.00;1.00;;;;;-143.90;91.47;73409.13;4988532;27;101734;-79
2023/08/03 05:17:42;;;;;;;;;2.00;2.00;;;;;-143.90;91.75;73423.59;4982364;27;103366;-80
2023/08/03 05:20:10;;;;;;;;;2.00;2.00;;;;;-143.90;92.01;73419.44;4990173;27;101580;-80
2023/08/03 05:22:37;;;;;;;;;1.00;1.00;;;;;-143.90;91.42;73419.44;4994006;27;101860;-80
2023/08/03 05:25:04;;;;;;;;;1.00;1.00;;;;;-143.90;90.90;73415.31;4992826;27;102308;-79
2023/08/03 05:27:32;;;;;;;;;0.00;0.00;;;;;-143.90;90.22;73415.31;4992883;27;103549;-78
2023/08/03 05:29:59;;;;;;;;;0.00;0.00;;;;;-143.90;89.72;73415.31;4991295;27;102021;-78
2023/08/03 05:32:26;;;;;;;;;1.00;1.00;;;;;-143.90;89.51;73423.59;4986990;28;101573;-78
2023/08/03 05:34:54;;;;;;;;;1.33;1.00;;;;;-143.90;89.50;73429.78;4973488;28;101974;-78
2023/08/03 05:37:21;;;;;;;;;0.00;0.00;;;;;-143.90;88.65;73425.66;4981597;27;103136;-78
2023/08/03 05:39:48;;;;;;;;;0.67;0.67;;;;;-143.90;88.32;73429.78;4992969;27;101579;-78
2023/08/03 05:42:17;;;;;;;;;1.00;1.00;;;;;-143.90;87.70;73409.13;4994619;27;101950;-79
2023/08/03 05:44:44;;;;;;;;;4.00;3.00;;;;;-143.90;86.90;73411.19;4995227;27;102308;-78
2023/08/03 05:47:15;;;;;;;;;2.00;1.00;;;;;-143.90;87.63;73415.31;4969897;28;103432;-78
2023/08/03 05:49:42;;;;;;;;;1.00;1.00;;;;;-143.90;88.77;73423.59;4989231;27;101964;-78
2023/08/03 05:52:10;;;;;;;;;0.00;0.00;;;;;-143.90;89.15;73433.91;4988713;27;102260;-78
2023/08/03 05:54:38;;;;;;;;;1.00;1.00;;;;;-143.90;89.31;73429.78;4993920;27;101515;-79
2023/08/03 05:57:08;;;;;;;;;1.00;0.33;;;;;-143.90;89.25;73427.72;4990696;27;103663;-80
2023/08/03 05:59:36;;;;;;;;;1.00;1.00;;;;;-143.90;88.92;73419.44;4974724;27;101685;-78
2023/08/03 06:02:15;;;;;;;;;0.00;0.00;;;;;-143.90;89.06;73425.66;4967868;28;101894;-78
2023/08/03 06:04:43;;;;;;;;;0.33;0.33;;;;;-143.90;89.96;73419.44;4984679;27;101711;-79
2023/08/03 06:07:11;;;;;;;;;1.00;0.67;;;;;-143.90;89.65;73419.44;4970856;28;103350;-78
2023/08/03 06:09:39;;;;;;;;;1.00;0.00;;;;;-143.90;89.78;73413.25;4970986;28;101896;-77
2023/08/03 06:12:14;;;;;;;;;1.00;1.00;;;;;-143.90;89.29;73415.31;4950778;28;101991;-78
2023/08/03 06:14:41;;;;;;;;;2.00;1.00;;;;;-143.90;88.55;73419.44;4976822;28;102633;-78
2023/08/03 06:17:10;;;;;;;;;2.00;2.00;;;;;-143.90;88.25;73409.13;4972801;28;103554;-79
2023/08/03 06:19:37;;;;;;;;;2.00;1.00;;;;;-143.90;88.57;73415.31;4970431;28;101947;-79
2023/08/03 06:22:16;;;;;;;;;2.00;2.00;;;;;-143.90;88.21;73402.91;4969350;28;103083;-80
2023/08/03 06:24:43;;;;;;;;;1.67;1.00;;;;;-143.90;88.46;73402.91;4954511;28;102770;-80
2023/08/03 06:27:11;;;;;;;;;1.67;1.33;;;;;-143.90;88.29;73402.91;4967238;28;103380;-80
2023/08/03 06:29:39;;;;;;;;;2.00;1.00;;;;;-143.90;88.65;73407.06;4971563;28;101741;-82
2023/08/03 06:32:17;;;;;;;;;1.00;1.00;;;;;-143.90;88.41;73396.72;4983565;28;101705;-83
2023/08/03 06:34:44;;;;;;;;;1.00;0.67;;;;;-143.90;88.15;73400.84;4978522;28;101693;-82
2023/08/03 06:37:11;;;;;;;;;2.00;2.00;;;;;-143.90;87.63;73407.06;4958297;28;103427;-79
2023/08/03 06:39:39;;;;;;;;;2.00;2.00;;;;;-143.90;88.16;73411.19;4973013;28;101574;-82
2023/08/03 06:42:06;;;;;;;;;1.00;1.00;;;;;-143.90;88.08;73394.66;4955924;28;101969;-83
2023/08/03 06:44:33;;;;;;;;;2.33;1.00;;;;;-143.90;88.18;73396.72;4970125;28;101931;-82
2023/08/03 06:47:03;;;;;;;;;3.33;2.67;;;;;-143.90;88.21;73394.66;4979859;28;103205;-80
2023/08/03 06:49:30;;;;;;;;;1.33;1.00;;;;;-143.90;87.65;73407.06;4980492;28;101802;-82
2023/08/03 06:51:58;;;;;;;;;1.00;1.00;;;;;-143.90;87.49;73411.19;4976181;28;102173;-81
2023/08/03 06:54:25;;;;;;;;;1.67;1.67;;;;;-143.90;86.88;73415.31;4978615;28;101606;-80
2023/08/03 06:56:52;;;;;;;;;0.67;0.67;;;;;-143.90;87.46;73427.72;4975048;28;103625;-81
2023/08/03 06:59:21;;;;;;;;;1.00;1.00;;;;;-143.90;87.33;73417.38;4972661;28;101570;-79
2023/08/03 07:01:50;;;;;;;;;2.00;2.00;;;;;-143.90;87.07;73440.13;4978893;28;102072;-81
2023/08/03 07:04:17;;;;;;;;;1.00;1.00;;;;;-143.90;87.30;73458.72;4958143;28;101683;-81
2023/08/03 07:06:47;;;;;;;;;1.00;1.00;;;;;-143.90;87.77;73469.03;4976933;28;108162;-80
2023/08/03 07:09:14;;;;;;;;;1.67;1.33;;;;;-143.90;87.66;73481.44;4968166;28;101791;-82
2023/08/03 07:11:41;;;;;;;;;0.67;0.67;;;;;-143.90;87.61;73473.19;4967574;28;101634;-81
2023/08/03 07:14:09;;;;;;;;;1.00;1.00;;;;;-143.90;87.49;73481.44;4937124;28;101943;-80
2023/08/03 07:16:38;;;;;;;;;3.00;2.00;;;;;-143.90;87.13;73477.31;4973139;28;102950;-77
2023/08/03 07:19:10;;;;;;;;;2.00;2.00;;;;;-143.90;87.21;73479.38;4972232;28;101757;-78
2023/08/03 07:21:37;;;;;;;;;2.00;2.00;;;;;-143.90;87.19;73483.50;4969900;28;101953;-79
2023/08/03 07:24:04;;;;;;;;;1.67;1.33;;;;;-143.90;85.88;73489.72;4976911;28;101828;-79
2023/08/03 07:26:32;;;;;;;;;2.00;2.00;;;;;-143.90;85.38;73500.03;4975370;28;103097;-79
2023/08/03 07:28:59;;;;;;;;;2.00;2.00;;;;;-143.90;85.64;73510.38;4952204;28;101939;-79
2023/08/03 07:31:27;;;;;;;;;1.00;1.00;;;;;-143.90;85.63;73522.78;4977080;28;101701;-79
2023/08/03 07:33:55;;;;;;;;;1.00;1.00;;;;;-143.90;84.75;73543.44;4976221;28;101588;-79
2023/08/03 07:36:22;;;;;;;;;3.00;2.00;;;;;-143.90;83.99;73531.03;4972090;28;103402;-78
2023/08/03 07:38:49;;;;;;;;;0.33;0.33;;;;;-143.90;85.40;73516.56;4968305;28;101645;-79
2023/08/03 07:41:16;;;;;;;;;1.33;1.00;;;;;-143.90;84.96;73512.44;4983744;28;102265;-77
2023/08/03 07:43:43;;;;;;;;;1.00;1.00;;;;;-143.90;85.32;73502.09;4975448;28;101700;-77
2023/08/03 07:46:10;;;;;;;;;1.00;0.67;;;;;-143.90;85.41;73506.25;4975131;28;103302;-77
2023/08/03 07:48:38;;;;;;;;;0.00;0.00;;;;;-143.90;85.44;73500.03;4975829;28;101849;-77
2023/08/03 07:51:15;;;;;;;;;1.00;1.00;;;;;-143.90;85.08;73506.25;4971928;28;101824;-78
2023/08/03 07:53:47;;;;;;;;;1.00;1.00;;;;;-143.90;83.76;73514.50;4971566;28;102668;-78
2023/08/03 07:56:19;;;;;;;;;0.33;0.00;;;;;-143.90;82.28;73510.38;4970083;28;108094;-79
2023/08/03 07:58:48;;;;;;;;;1.33;1.00;;;;;-143.90;84.05;73516.56;4964415;28;101665;-78
2023/08/03 08:01:15;;;;;;;;;1.00;0.00;;;;;-143.90;84.77;73520.72;4976689;28;102199;-79
2023/08/03 08:03:43;;;;;;;;;0.33;0.33;;;;;-143.90;84.92;73520.72;4970947;28;101739;-80
2023/08/03 08:06:16;;;;;;;;;1.00;1.00;;;;;-143.90;84.81;73518.66;4969535;28;103443;-79
2023/08/03 08:08:44;;;;;;;;;0.00;0.00;;;;;-143.90;84.87;73514.50;4983708;27;101956;-80
2023/08/03 08:11:14;;;;;;;;;0.33;0.00;;;;;-143.90;85.00;73514.50;4994003;27;101672;-75
2023/08/03 08:13:42;;;;;;;;;0.00;0.00;;;;;-143.90;85.02;73500.03;4990166;27;101661;-75
2023/08/03 08:16:12;;;;;;;;;0.00;0.00;;;;;-143.90;85.31;73516.56;4980364;27;103520;-75
2023/08/03 08:18:39;;;;;;;;;0.00;0.00;;;;;-143.90;85.21;73510.38;4998850;27;101471;-75
2023/08/03 08:21:11;;;;;;;;;0.00;0.00;;;;;-143.90;84.89;73522.78;4987963;27;105296;-75
2023/08/03 08:23:40;;;;;;;;;0.00;0.00;;;;;-143.90;84.88;73545.50;4992875;27;101614;-75
2023/08/03 08:26:12;;;;;;;;;1.00;1.00;;;;;-143.90;84.99;73535.19;4984899;27;104487;-75
2023/08/03 08:28:43;;;;;;;;;0.33;0.00;;;;;-143.90;85.65;73539.31;4994681;27;101626;-75
2023/08/03 08:31:28;;;;;;;;;1.33;1.00;;;;;-143.90;85.22;73518.66;4975874;27;101943;-74
2023/08/03 08:34:14;;;;;;;;;0.00;0.00;;;;;-143.90;86.11;73522.78;4997705;27;102101;-75
2023/08/03 08:36:41;;;;;;;;;0.00;0.00;;;;;-143.90;85.69;73522.78;4994124;27;103343;-75
2023/08/03 08:39:10;;;;;;;;;1.00;1.00;;;;;-143.90;85.70;73528.97;4981689;27;101899;-75
2023/08/03 08:41:40;;;;;;;;;1.00;0.00;;;;;-143.90;85.65;73514.50;4985147;28;102169;-75
2023/08/03 08:44:13;;;;;;;;;0.00;0.00;;;;;-143.90;85.95;73522.78;4988932;27;102059;-76
2023/08/03 08:46:44;;;;;;;;;2.33;2.00;;;;;-143.90;85.01;73514.50;4968871;28;103238;-76
2023/08/03 08:49:12;;;;;;;;;2.00;1.67;;;;;-143.90;86.38;73514.50;4980745;28;101609;-76
2023/08/03 08:51:45;;;;;;;;;2.33;2.00;;;;;-143.90;86.65;73512.44;4968822;28;101722;-76
2023/08/03 08:54:15;;;;;;;;;2.00;1.00;;;;;-143.90;87.31;73528.97;4982347;27;102110;-76
2023/08/03 08:56:44;;;;;;;;;0.00;0.00;;;;;-143.90;87.25;73528.97;4988708;27;103238;-76
2023/08/03 08:59:14;;;;;;;;;0.00;0.00;;;;;-143.90;86.72;73504.19;4989193;28;101923;-76
2023/08/03 09:02:02;;;;;;;;;0.00;0.00;;;;;-143.90;86.47;73500.03;4987342;27;101490;-76
2023/08/03 09:04:32;;;;;;;;;1.00;0.00;;;;;-143.90;86.48;73479.38;4987422;28;101795;-76
2023/08/03 09:07:02;;;;;;;;;1.00;1.00;;;;;-143.90;86.65;73479.38;4971631;28;103021;-75
2023/08/03 09:09:35;;;;;;;;;2.00;2.00;;;;;-143.90;86.59;73483.50;4952785;28;101761;-76
2023/08/03 09:12:03;;;;;;;;;0.00;0.00;;;;;-143.90;86.67;73477.31;4973238;28;101856;-76
2023/08/03 09:14:31;;;;;;;;;2.00;1.00;;;;;-143.90;86.78;73483.50;4973514;28;101576;-75
2023/08/03 09:17:20;;;;;;;;;1.00;1.00;;;;;-143.90;86.17;73477.31;4962206;28;103398;-75
2023/08/03 09:19:48;;;;;;;;;0.33;0.33;;;;;-143.90;85.86;73464.91;4970257;28;102488;-75
2023/08/03 09:22:22;;;;;;;;;1.00;1.00;;;;;-143.90;85.93;73462.84;4949768;28;102996;-76
2023/08/03 09:25:04;;;;;;;;;1.33;1.00;;;;;-143.90;85.91;73450.44;4951438;28;101899;-75
2023/08/03 09:27:33;;;;;;;;;0.00;0.00;;;;;-143.90;85.27;73442.19;4954931;28;106994;-75
2023/08/03 09:30:04;;;;;;;;;0.67;0.67;;;;;-143.90;84.73;73415.31;4973625;28;104759;-75
2023/08/03 09:32:42;;;;;;;;;2.00;1.00;;;;;-143.90;84.43;73415.31;4966690;28;101893;-76
2023/08/03 09:35:23;;;;;;;;;1.00;1.00;;;;;-143.90;84.11;73417.38;4969911;28;101891;-75
2023/08/03 09:37:53;;;;;;;;;1.00;1.00;;;;;-143.90;84.46;73448.38;4963424;28;107835;-75
2023/08/03 09:40:20;;;;;;;;;1.00;1.00;;;;;-143.90;84.21;73446.31;4950644;28;102383;-75
2023/08/03 09:42:48;;;;;;;;;0.33;0.33;;;;;-143.90;84.42;73448.38;4968467;28;101760;-75
2023/08/03 09:45:16;;;;;;;;;1.00;1.00;;;;;-143.90;84.59;73460.78;4973584;28;101887;-76
2023/08/03 09:47:49;;;;;;;;;1.33;1.00;;;;;-143.90;84.56;73452.50;4975412;28;102876;-75
2023/08/03 09:50:16;;;;;;;;;1.00;0.00;;;;;-143.90;84.80;73458.72;4952638;28;101967;-75
2023/08/03 09:52:46;;;;;;;;;1.67;0.00;;;;;-143.90;84.68;73471.13;4969915;28;101619;-75
2023/08/03 09:55:29;;;;;;;;;0.67;0.67;;;;;-143.90;84.80;73469.03;4952734;28;102088;-74
2023/08/03 09:58:05;;;;;;;;;0.67;0.67;;;;;-143.90;84.40;73471.13;4948602;28;107890;-75
2023/08/03 10:00:33;;;;;;;;;0.67;0.67;;;;;-143.90;84.86;73495.91;4939656;28;101747;-76
2023/08/03 10:03:07;;;;;;;;;1.00;1.00;;;;;-143.90;84.80;73512.44;4976917;28;101565;-76
2023/08/03 10:05:39;;;;;;;;;0.50;0.50;;;;;-143.90;84.46;73518.66;4986574;28;103615;-76
2023/08/03 10:08:46;;;;;;;;;0.00;0.00;;;;;-143.90;84.63;73531.03;4990320;28;103414;-76
2023/08/03 10:11:14;;;;;;;;;0.00;0.00;;;;;-143.90;84.89;73531.03;4995017;28;103331;-76
2023/08/03 10:13:46;;;;;;;;;2.00;2.00;;;;;-143.90;84.37;73522.78;4993135;28;101914;-76
2023/08/03 10:16:15;;;;;;;;;7.00;7.00;;;;;-143.90;84.28;73520.72;4991575;28;101852;-76
2023/08/03 10:18:44;;;;;;;;;5.33;3.67;;;;;-143.90;84.46;73502.09;4979460;28;103550;-76
2023/08/03 10:21:26;;;;;;;;;2.00;2.00;;;;;-143.90;84.73;73489.72;4977566;28;101711;-75
2023/08/03 10:24:15;;;;;;;;;2.00;2.00;;;;;-143.90;84.61;73502.09;4998198;28;101694;-77
2023/08/03 10:26:42;;;;;;;;;1.33;1.00;;;;;-143.90;84.87;73528.97;4979601;28;101818;-76
2023/08/03 10:29:10;;;;;;;;;0.00;0.00;;;;;-143.90;84.77;73537.25;4994834;28;103278;-76
2023/08/03 10:31:54;;;;;;;;;1.00;1.00;;;;;-143.90;84.68;73522.78;4996226;28;101636;-76
2023/08/03 10:34:27;;;;;;;;;1.67;1.00;;;;;-143.90;84.99;73510.38;4995700;28;101863;-76
2023/08/03 10:36:56;;;;;;;;;0.67;0.67;;;;;-143.90;85.00;73520.72;4998584;28;102131;-77
2023/08/03 10:39:59;;;;;;;;;2.00;2.00;;;;;-143.90;84.37;73497.97;4998611;28;103506;-77
2023/08/03 10:42:35;;;;;;;;;0.00;0.00;;;;;-143.90;85.26;73516.56;4955119;28;101621;-76
2023/08/03 10:45:20;;;;;;;;;1.00;1.00;;;;;-143.90;85.14;73539.31;4994375;28;103225;-76
2023/08/03 10:47:49;;;;;;;;;2.00;1.00;;;;;-143.90;85.29;73528.97;4992876;28;101801;-76
2023/08/03 10:50:16;;;;;;;;;0.00;0.00;;;;;-143.90;84.63;73557.91;4994187;28;102802;-77
2023/08/03 10:52:43;;;;;;;;;0.00;0.00;;;;;-143.90;85.23;73522.78;4975712;28;108785;-76
2023/08/03 10:55:26;;;;;;;;;2.00;2.00;;;;;-143.90;84.59;73568.25;4993897;27;101948;-76
2023/08/03 10:57:57;;;;;;;;;1.00;1.00;;;;;-143.90;84.71;73588.91;4993078;28;102748;-77
2023/08/03 11:00:24;;;;;;;;;1.00;1.00;;;;;-143.90;84.77;73590.97;4997171;28;106725;-77
2023/08/03 11:02:51;;;;;;;;;1.00;1.00;;;;;-143.90;84.21;73590.97;4993207;28;101962;-75
2023/08/03 11:05:18;;;;;;;;;1.00;1.00;;;;;-143.90;84.67;73582.72;4988129;28;101994;-76
2023/08/03 11:07:46;;;;;;;;;0.67;0.67;;;;;-143.90;84.21;73564.09;4995827;27;101811;-76
2023/08/03 11:10:15;;;;;;;;;0.00;0.00;;;;;-143.90;84.41;73559.97;4989036;27;103341;-75
2023/08/03 11:12:44;;;;;;;;;1.00;1.00;;;;;-143.90;84.20;73555.84;4996672;27;101583;-75
2023/08/03 11:15:16;;;;;;;;;1.00;1.00;;;;;-143.90;84.14;73547.56;5001918;27;101935;-75
2023/08/03 11:17:48;;;;;;;;;1.00;1.00;;;;;-143.90;83.86;73531.03;4996161;27;101840;-75
2023/08/03 11:20:16;;;;;;;;;0.00;0.00;;;;;-143.90;83.73;73516.56;4994456;28;103867;-75
2023/08/03 11:22:43;;;;;;;;;1.00;1.00;;;;;-143.90;83.43;73518.66;4969787;28;102038;-75
2023/08/03 11:25:10;;;;;;;;;0.00;0.00;;;;;-143.90;82.73;73520.72;4992336;27;101706;-75